Airport Name : Greater Peoria Rgnl

Other Name : Greater Peoria

ICAO : KPIA

IATA : PIA

FAA : PIA

Latitude : 40.664203

Longitude : -89.693258

Country : United States

Local Date and Time : 06 Mar 2021 10:56

 

TAF (Terminal Aerodrome Forecast)

KPIA 061144Z 0612/0712 VRB03KT P6SM BKN100 FM062000 28004KT P6SM FEW120 SCT250 FM070000 08003KT P6SM SKC

 

METAR (METeorological Aerodrome Report)

KPIA 061654Z VRB04KT 10SM FEW095 09/M03 A3037 RMK AO2 SLP288 T00891028

KPIA 061554Z 16005KT 10SM SCT100 07/M03 A3037 RMK AO2 SLP290 T00671033

KPIA 061454Z 21007KT 10SM CLR 05/M03 A3038 RMK AO2 SLP291 T00501033 50004

KPIA 061354Z 00000KT 10SM OVC100 02/M03 A3038 RMK AO2 SLP292 T00221028

To Charter a Jet Click here.